createdAt,value
2019-03-06T00:00:30.298Z,1004.75
2019-03-06T00:01:30.327Z,1004.79
2019-03-06T00:02:30.342Z,1004.82
2019-03-06T00:03:30.368Z,1004.83
2019-03-06T00:04:30.387Z,1004.91
2019-03-06T00:05:30.409Z,1004.89
2019-03-06T00:06:30.431Z,1004.94
2019-03-06T00:07:30.453Z,1004.99
2019-03-06T00:08:30.478Z,1005.00
2019-03-06T00:09:30.499Z,1005.02
2019-03-06T00:10:30.522Z,1004.99
2019-03-06T00:11:30.546Z,1005.01
2019-03-06T00:12:30.565Z,1005.07
2019-03-06T00:13:30.589Z,1005.08
2019-03-06T00:14:30.612Z,1005.02
2019-03-06T00:15:30.634Z,1005.11
2019-03-06T00:16:30.657Z,1005.12
2019-03-06T00:17:30.678Z,1005.11
2019-03-06T00:18:30.699Z,1005.14
2019-03-06T00:19:30.722Z,1005.13
2019-03-06T00:20:30.743Z,1005.17
2019-03-06T00:21:30.771Z,1005.19
2019-03-06T00:22:30.795Z,1005.20
2019-03-06T00:23:30.810Z,1005.22
2019-03-06T00:24:30.837Z,1005.24
2019-03-06T00:25:30.859Z,1005.28
2019-03-06T00:26:30.878Z,1005.29
2019-03-06T00:27:30.901Z,1005.30
2019-03-06T00:28:30.925Z,1005.32
2019-03-06T00:29:30.948Z,1005.38
2019-03-06T00:30:30.966Z,1005.38
2019-03-06T00:31:30.996Z,1005.38
2019-03-06T00:32:31.012Z,1005.41
2019-03-06T00:33:31.038Z,1005.47
2019-03-06T00:34:31.057Z,1005.48
2019-03-06T00:35:31.078Z,1005.48
2019-03-06T00:36:31.103Z,1005.45
2019-03-06T00:37:31.131Z,1005.54
2019-03-06T00:38:31.148Z,1005.56
2019-03-06T00:39:31.170Z,1005.60
2019-03-06T00:40:31.195Z,1005.59
2019-03-06T00:41:31.215Z,1005.59
2019-03-06T00:42:31.232Z,1005.61
2019-03-06T00:43:31.258Z,1005.64
2019-03-06T00:44:31.280Z,1005.63
2019-03-06T00:45:31.302Z,1005.64
2019-03-06T00:46:31.325Z,1005.65
2019-03-06T00:47:31.358Z,1005.66
2019-03-06T00:48:31.381Z,1005.69
2019-03-06T00:49:31.405Z,1005.72
2019-03-06T00:50:31.422Z,1005.78
2019-03-06T00:51:31.448Z,1005.82
2019-03-06T00:52:31.469Z,1005.86
2019-03-06T00:53:31.493Z,1005.83
2019-03-06T00:54:31.516Z,1005.88
2019-03-06T00:55:31.537Z,1005.89
2019-03-06T00:56:31.559Z,1005.89
2019-03-06T00:57:31.581Z,1005.93
2019-03-06T00:58:31.603Z,1005.92
2019-03-06T00:59:31.624Z,1005.90
2019-03-06T01:00:31.647Z,1005.95
2019-03-06T01:01:31.668Z,1006.02
2019-03-06T01:02:31.690Z,1006.03
2019-03-06T01:03:31.713Z,1006.09
2019-03-06T01:04:31.736Z,1006.11
2019-03-06T01:05:31.758Z,1006.12
2019-03-06T01:06:31.783Z,1006.14
2019-03-06T01:07:31.805Z,1006.16
2019-03-06T01:08:31.826Z,1006.24
2019-03-06T01:09:31.849Z,1006.22
2019-03-06T01:10:31.878Z,1006.23
2019-03-06T01:11:31.890Z,1006.24
2019-03-06T01:12:31.914Z,1006.19
2019-03-06T01:13:31.934Z,1006.26
2019-03-06T01:14:31.957Z,1006.27
2019-03-06T01:15:31.982Z,1006.30
2019-03-06T01:16:32.003Z,1006.32
2019-03-06T01:17:32.023Z,1006.35
2019-03-06T01:18:32.047Z,1006.32
2019-03-06T01:19:32.066Z,1006.44
2019-03-06T01:20:32.091Z,1006.40
2019-03-06T01:21:32.113Z,1006.43
2019-03-06T01:22:32.132Z,1006.43
2019-03-06T01:23:32.157Z,1006.41
2019-03-06T01:24:32.177Z,1006.43
2019-03-06T01:25:32.202Z,1006.51
2019-03-06T01:26:32.220Z,1006.50
2019-03-06T01:27:32.246Z,1006.49
2019-03-06T01:28:32.264Z,1006.57
2019-03-06T01:29:32.286Z,1006.57
2019-03-06T01:30:32.308Z,1006.55
2019-03-06T01:31:32.329Z,1006.61
2019-03-06T01:32:32.351Z,1006.60
2019-03-06T01:33:32.373Z,1006.64
2019-03-06T01:34:32.395Z,1006.63
2019-03-06T01:35:32.423Z,1006.67
2019-03-06T01:36:32.439Z,1006.63
2019-03-06T01:37:32.461Z,1006.67
2019-03-06T01:38:32.484Z,1006.66
2019-03-06T01:39:32.504Z,1006.65
2019-03-06T01:40:32.527Z,1006.72
2019-03-06T01:41:32.550Z,1006.73
2019-03-06T01:42:32.571Z,1006.74
2019-03-06T01:43:32.592Z,1006.73
2019-03-06T01:44:32.617Z,1006.80
2019-03-06T01:45:32.639Z,1006.83
2019-03-06T01:46:32.659Z,1006.77
2019-03-06T01:47:32.680Z,1006.83
2019-03-06T01:48:32.701Z,1006.85
2019-03-06T01:49:32.725Z,1006.88
2019-03-06T01:50:32.748Z,1006.86
2019-03-06T01:51:32.767Z,1006.85
2019-03-06T01:52:32.791Z,1006.87
2019-03-06T01:53:32.813Z,1006.90
2019-03-06T01:54:32.835Z,1006.91
2019-03-06T01:55:32.856Z,1006.97
2019-03-06T01:56:32.876Z,1006.97
2019-03-06T01:57:32.897Z,1007.02
2019-03-06T01:58:32.920Z,1007.07
2019-03-06T01:59:32.941Z,1007.03
2019-03-06T02:00:32.964Z,1007.08
2019-03-06T02:01:32.983Z,1007.09
2019-03-06T02:02:33.004Z,1007.14
2019-03-06T02:03:33.027Z,1007.19
2019-03-06T02:04:33.050Z,1007.16
2019-03-06T02:05:33.076Z,1007.19
2019-03-06T02:06:33.092Z,1007.22
2019-03-06T02:07:33.113Z,1007.20
2019-03-06T02:08:33.138Z,1007.23
2019-03-06T02:09:33.159Z,1007.29
2019-03-06T02:10:33.180Z,1007.23
2019-03-06T02:11:33.202Z,1007.30
2019-03-06T02:12:33.225Z,1007.31
2019-03-06T02:13:33.246Z,1007.40
2019-03-06T02:14:33.265Z,1007.38
2019-03-06T02:15:33.290Z,1007.36
2019-03-06T02:16:33.315Z,1007.39
2019-03-06T02:17:33.333Z,1007.40
2019-03-06T02:18:33.353Z,1007.43
2019-03-06T02:19:33.381Z,1007.47
2019-03-06T02:20:33.397Z,1007.45
2019-03-06T02:21:33.420Z,1007.51
2019-03-06T02:22:33.439Z,1007.51
2019-03-06T02:23:33.462Z,1007.60
2019-03-06T02:24:33.482Z,1007.60
2019-03-06T02:25:33.507Z,1007.60
2019-03-06T02:26:33.528Z,1007.65
2019-03-06T02:27:33.550Z,1007.69
2019-03-06T02:28:33.569Z,1007.69
2019-03-06T02:29:33.593Z,1007.73
2019-03-06T02:30:33.612Z,1007.80
2019-03-06T02:31:33.635Z,1007.84
2019-03-06T02:32:33.657Z,1007.83
2019-03-06T02:33:33.679Z,1007.88
2019-03-06T02:34:33.700Z,1007.88
2019-03-06T02:35:33.722Z,1007.87
2019-03-06T02:36:33.745Z,1007.85
2019-03-06T02:37:33.767Z,1007.87
2019-03-06T02:38:33.789Z,1007.88
2019-03-06T02:39:33.809Z,1007.88
2019-03-06T02:40:33.835Z,1007.92
2019-03-06T02:41:33.849Z,1007.92
2019-03-06T02:42:33.871Z,1007.92
2019-03-06T02:43:33.891Z,1007.93
2019-03-06T02:44:33.915Z,1007.96
2019-03-06T02:45:33.938Z,1008.02
2019-03-06T02:46:33.956Z,1008.02
2019-03-06T02:47:33.983Z,1008.06
2019-03-06T02:48:34.003Z,1008.07
2019-03-06T02:49:34.018Z,1008.09
2019-03-06T02:50:34.047Z,1008.10
2019-03-06T02:51:34.068Z,1008.10
2019-03-06T02:52:34.085Z,1008.11
2019-03-06T02:53:34.109Z,1008.12
2019-03-06T02:54:34.127Z,1008.15
2019-03-06T02:55:34.146Z,1008.12
2019-03-06T02:56:34.175Z,1008.19
2019-03-06T02:57:34.193Z,1008.19
2019-03-06T02:58:34.208Z,1008.23
2019-03-06T02:59:34.233Z,1008.25
2019-03-06T03:00:34.254Z,1008.24
2019-03-06T03:01:34.274Z,1008.21
2019-03-06T03:02:34.293Z,1008.33
2019-03-06T03:03:34.314Z,1008.30
2019-03-06T03:04:34.335Z,1008.37
2019-03-06T03:05:34.356Z,1008.37
2019-03-06T03:06:34.381Z,1008.40
2019-03-06T03:07:34.397Z,1008.39
2019-03-06T03:08:34.434Z,1008.41
2019-03-06T03:09:34.442Z,1008.44
2019-03-06T03:10:34.459Z,1008.45
2019-03-06T03:11:34.479Z,1008.48
2019-03-06T03:12:34.501Z,1008.53
2019-03-06T03:13:34.523Z,1008.50
2019-03-06T03:14:34.542Z,1008.54
2019-03-06T03:15:34.565Z,1008.57
2019-03-06T03:16:34.584Z,1008.58
2019-03-06T03:17:34.607Z,1008.61
2019-03-06T03:18:34.629Z,1008.66
2019-03-06T03:19:34.651Z,1008.67
2019-03-06T03:20:34.675Z,1008.67
2019-03-06T03:21:34.690Z,1008.67
2019-03-06T03:22:34.711Z,1008.73
2019-03-06T03:23:34.734Z,1008.72
2019-03-06T03:24:34.753Z,1008.75
2019-03-06T03:25:34.785Z,1008.83
2019-03-06T03:26:34.796Z,1008.77
2019-03-06T03:27:34.820Z,1008.79
2019-03-06T03:28:34.837Z,1008.81
2019-03-06T03:29:34.858Z,1008.81
2019-03-06T03:30:34.878Z,1008.80
2019-03-06T03:31:34.902Z,1008.81
2019-03-06T03:32:34.924Z,1008.84
2019-03-06T03:33:34.987Z,1008.86
2019-03-06T03:34:34.972Z,1008.89
2019-03-06T03:35:34.988Z,1008.91
2019-03-06T03:36:35.009Z,1008.92
2019-03-06T03:37:35.026Z,1008.94
2019-03-06T03:38:35.046Z,1008.94
2019-03-06T03:39:35.068Z,1008.95
2019-03-06T03:40:35.090Z,1008.95
2019-03-06T03:41:35.112Z,1008.97
2019-03-06T03:42:35.132Z,1009.01
2019-03-06T03:43:35.155Z,1009.06
2019-03-06T03:44:35.179Z,1009.10
2019-03-06T03:45:35.198Z,1009.07
2019-03-06T03:46:35.214Z,1009.10
2019-03-06T03:47:35.238Z,1009.14
2019-03-06T03:48:35.260Z,1009.14
2019-03-06T03:49:35.307Z,1009.13
2019-03-06T03:50:35.305Z,1009.18
2019-03-06T03:51:35.323Z,1009.17
2019-03-06T03:52:35.342Z,1009.16
2019-03-06T03:53:35.372Z,1009.16
2019-03-06T03:54:35.388Z,1009.24
2019-03-06T03:55:35.410Z,1009.24
2019-03-06T03:56:35.432Z,1009.24
2019-03-06T03:57:35.458Z,1009.31
2019-03-06T03:58:35.469Z,1009.32
2019-03-06T03:59:35.487Z,1009.31
2019-03-06T04:00:35.512Z,1009.31
2019-03-06T04:01:35.535Z,1009.32
2019-03-06T04:02:35.558Z,1009.36
2019-03-06T04:03:35.573Z,1009.37
2019-03-06T04:04:35.605Z,1009.38
2019-03-06T04:05:35.614Z,1009.48
2019-03-06T04:06:35.633Z,1009.46
2019-03-06T04:07:35.656Z,1009.51
2019-03-06T04:08:35.680Z,1009.55
2019-03-06T04:09:35.698Z,1009.58
2019-03-06T04:10:35.716Z,1009.59
2019-03-06T04:11:35.739Z,1009.66
2019-03-06T04:12:35.759Z,1009.66
2019-03-06T04:13:35.780Z,1009.76
2019-03-06T04:14:35.802Z,1009.77
2019-03-06T04:15:35.826Z,1009.82
2019-03-06T04:16:35.848Z,1009.78
2019-03-06T04:17:35.864Z,1009.85
2019-03-06T04:18:35.882Z,1009.87
2019-03-06T04:19:35.911Z,1009.91
2019-03-06T04:20:35.925Z,1009.93
2019-03-06T04:21:35.946Z,1009.89
2019-03-06T04:22:35.968Z,1009.93
2019-03-06T04:23:35.987Z,1009.92
2019-03-06T04:24:36.009Z,1009.90
2019-03-06T04:25:36.028Z,1009.93
2019-03-06T04:26:36.036Z,1009.97
2019-03-06T04:27:36.058Z,1009.98
2019-03-06T04:28:36.083Z,1010.00
2019-03-06T04:29:36.105Z,1010.00
2019-03-06T04:30:36.123Z,1010.02
2019-03-06T04:31:36.144Z,1010.05
2019-03-06T04:32:36.162Z,1010.05
2019-03-06T04:33:36.184Z,1010.09
2019-03-06T04:34:36.206Z,1010.09
2019-03-06T04:35:36.224Z,1010.15
2019-03-06T04:36:36.245Z,1010.18
2019-03-06T04:37:36.263Z,1010.20
2019-03-06T04:38:36.284Z,1010.22
2019-03-06T04:39:36.308Z,1010.22
2019-03-06T04:40:36.328Z,1010.27
2019-03-06T04:41:36.348Z,1010.31
2019-03-06T04:42:36.367Z,1010.32
2019-03-06T04:43:36.387Z,1010.35
2019-03-06T04:44:36.413Z,1010.39
2019-03-06T04:45:36.429Z,1010.37
2019-03-06T04:46:36.451Z,1010.34
2019-03-06T04:47:36.469Z,1010.39
2019-03-06T04:48:36.493Z,1010.42
2019-03-06T04:49:36.512Z,1010.42
2019-03-06T04:50:36.533Z,1010.47
2019-03-06T04:51:36.552Z,1010.47
2019-03-06T04:52:36.575Z,1010.52
2019-03-06T04:53:36.595Z,1010.53
2019-03-06T04:54:36.614Z,1010.57
2019-03-06T04:55:36.636Z,1010.54
2019-03-06T04:56:36.660Z,1010.57
2019-03-06T04:57:36.679Z,1010.54
2019-03-06T04:58:36.700Z,1010.53
2019-03-06T04:59:36.721Z,1010.54
2019-03-06T05:00:36.739Z,1010.51
2019-03-06T05:01:36.760Z,1010.54
2019-03-06T05:02:36.793Z,1010.52
2019-03-06T05:03:36.801Z,1010.52
2019-03-06T05:04:36.823Z,1010.49
2019-03-06T05:05:36.844Z,1010.52
2019-03-06T05:06:36.909Z,1010.53
2019-03-06T05:07:36.888Z,1010.57
2019-03-06T05:08:36.908Z,1010.55
2019-03-06T05:09:36.930Z,1010.58
2019-03-06T05:10:36.947Z,1010.55
2019-03-06T05:11:36.968Z,1010.55
2019-03-06T05:12:36.990Z,1010.57
2019-03-06T05:13:37.011Z,1010.57
2019-03-06T05:14:37.039Z,1010.57
2019-03-06T05:15:37.052Z,1010.60
2019-03-06T05:16:37.076Z,1010.60
2019-03-06T05:17:37.092Z,1010.59
2019-03-06T05:18:37.114Z,1010.58
2019-03-06T05:19:37.135Z,1010.62
2019-03-06T05:20:37.159Z,1010.58
2019-03-06T05:21:37.179Z,1010.62
2019-03-06T05:22:37.203Z,1010.65
2019-03-06T05:23:37.218Z,1010.67
2019-03-06T05:24:37.241Z,1010.67
2019-03-06T05:25:37.264Z,1010.67
2019-03-06T05:26:37.278Z,1010.66
2019-03-06T05:27:37.301Z,1010.66
2019-03-06T05:28:37.319Z,1010.65
2019-03-06T05:29:37.343Z,1010.65
2019-03-06T05:30:37.360Z,1010.65
2019-03-06T05:31:37.382Z,1010.63
2019-03-06T05:32:37.404Z,1010.65
2019-03-06T05:33:37.433Z,1010.67
2019-03-06T05:34:37.445Z,1010.66
2019-03-06T05:35:37.470Z,1010.68
2019-03-06T05:36:37.485Z,1010.69
2019-03-06T05:37:37.505Z,1010.70
2019-03-06T05:38:37.527Z,1010.69
2019-03-06T05:39:37.546Z,1010.68
2019-03-06T05:40:37.565Z,1010.72
2019-03-06T05:41:37.588Z,1010.72
2019-03-06T05:42:37.604Z,1010.77
2019-03-06T05:43:37.625Z,1010.76
2019-03-06T05:44:37.644Z,1010.76
2019-03-06T05:45:37.669Z,1010.74
2019-03-06T05:46:37.689Z,1010.80
2019-03-06T05:47:37.705Z,1010.73
2019-03-06T05:48:37.729Z,1010.77
2019-03-06T05:49:37.754Z,1010.76
2019-03-06T05:50:37.770Z,1010.71
2019-03-06T05:51:37.790Z,1010.71
2019-03-06T05:52:37.809Z,1010.70
2019-03-06T05:53:37.828Z,1010.74
2019-03-06T05:54:37.846Z,1010.73
2019-03-06T05:55:37.868Z,1010.77
2019-03-06T05:56:37.891Z,1010.80
2019-03-06T05:57:37.908Z,1010.84
2019-03-06T05:58:37.926Z,1010.88
2019-03-06T05:59:37.950Z,1010.92
2019-03-06T06:00:37.974Z,1010.92
2019-03-06T06:01:37.988Z,1010.89
2019-03-06T06:02:38.008Z,1010.90
2019-03-06T06:03:38.028Z,1010.90
2019-03-06T06:04:38.053Z,1010.96
2019-03-06T06:05:38.071Z,1010.91
2019-03-06T06:06:38.090Z,1010.96
2019-03-06T06:07:38.112Z,1011.01
2019-03-06T06:08:38.131Z,1011.07
2019-03-06T06:09:38.151Z,1011.10
2019-03-06T06:10:38.171Z,1011.15
2019-03-06T06:11:38.194Z,1011.24
2019-03-06T06:12:38.221Z,1011.25
2019-03-06T06:13:38.235Z,1011.22
2019-03-06T06:14:38.257Z,1011.30
2019-03-06T06:15:38.281Z,1011.28
2019-03-06T06:16:38.304Z,1011.33
2019-03-06T06:17:38.326Z,1011.39
2019-03-06T06:18:38.344Z,1011.41
2019-03-06T06:19:38.368Z,1011.41
2019-03-06T06:20:38.391Z,1011.43
2019-03-06T06:21:38.417Z,1011.51
2019-03-06T06:22:38.443Z,1011.58
2019-03-06T06:23:38.459Z,1011.65
2019-03-06T06:24:38.488Z,1011.69
2019-03-06T06:25:38.507Z,1011.69
2019-03-06T06:26:38.530Z,1011.78
2019-03-06T06:27:38.557Z,1011.83
2019-03-06T06:28:38.581Z,1011.87
2019-03-06T06:29:38.609Z,1011.89
2019-03-06T06:30:38.639Z,1011.88
2019-03-06T06:31:38.654Z,1011.91
2019-03-06T06:32:38.684Z,1011.93
2019-03-06T06:33:38.711Z,1011.93
2019-03-06T06:34:38.736Z,1011.96
2019-03-06T06:35:38.756Z,1011.96
2019-03-06T06:36:38.782Z,1012.00
2019-03-06T06:37:38.809Z,1012.00
2019-03-06T06:38:38.834Z,1012.03
2019-03-06T06:39:38.858Z,1012.06
2019-03-06T06:40:38.902Z,1012.13
2019-03-06T06:41:38.911Z,1012.22
2019-03-06T06:42:38.939Z,1012.22
2019-03-06T06:43:38.963Z,1012.28
2019-03-06T06:44:38.988Z,1012.28
2019-03-06T06:45:39.015Z,1012.30
2019-03-06T06:46:39.043Z,1012.28
2019-03-06T06:47:39.069Z,1012.25
2019-03-06T06:48:39.097Z,1012.33
2019-03-06T06:49:39.126Z,1012.30
2019-03-06T06:50:39.150Z,1012.30
2019-03-06T06:51:39.174Z,1012.36
2019-03-06T06:52:39.199Z,1012.33
2019-03-06T06:53:39.232Z,1012.37
2019-03-06T06:54:39.252Z,1012.28
2019-03-06T06:55:39.278Z,1012.28
2019-03-06T06:56:39.307Z,1012.38
2019-03-06T06:57:39.332Z,1012.39
2019-03-06T06:58:39.355Z,1012.36
2019-03-06T06:59:39.385Z,1012.42
2019-03-06T07:00:39.408Z,1012.47
2019-03-06T07:01:39.437Z,1012.51
2019-03-06T07:02:39.462Z,1012.57
2019-03-06T07:03:39.491Z,1012.50
2019-03-06T07:04:39.514Z,1012.54
2019-03-06T07:05:39.544Z,1012.56
2019-03-06T07:06:39.569Z,1012.52
2019-03-06T07:07:39.595Z,1012.55
2019-03-06T07:08:39.623Z,1012.60
2019-03-06T07:09:39.653Z,1012.56
2019-03-06T07:10:39.679Z,1012.53
2019-03-06T07:11:39.707Z,1012.49
2019-03-06T07:12:39.736Z,1012.45
2019-03-06T07:13:39.763Z,1012.50
2019-03-06T07:14:39.790Z,1012.49
2019-03-06T07:15:39.819Z,1012.54
2019-03-06T07:16:39.848Z,1012.54
2019-03-06T07:17:39.877Z,1012.51
2019-03-06T07:18:39.904Z,1012.52
2019-03-06T07:19:39.933Z,1012.50
2019-03-06T07:20:39.961Z,1012.49
2019-03-06T07:21:39.990Z,1012.54
2019-03-06T07:22:40.015Z,1012.58
2019-03-06T07:23:41.389Z,1012.59
2019-03-06T07:24:40.071Z,1012.63
2019-03-06T07:25:40.109Z,1012.65
2019-03-06T07:26:40.128Z,1012.63
2019-03-06T07:27:40.156Z,1012.67
2019-03-06T07:28:40.180Z,1012.67
2019-03-06T07:29:40.208Z,1012.72
2019-03-06T07:30:40.238Z,1012.69
2019-03-06T07:31:40.264Z,1012.63
2019-03-06T07:32:40.297Z,1012.54
2019-03-06T07:33:40.328Z,1012.55
2019-03-06T07:34:40.345Z,1012.54
2019-03-06T07:35:40.371Z,1012.50
2019-03-06T07:36:40.401Z,1012.51
2019-03-06T07:37:40.427Z,1012.50
2019-03-06T07:38:40.460Z,1012.61
2019-03-06T07:39:40.482Z,1012.59
2019-03-06T07:40:40.516Z,1012.61
2019-03-06T07:41:40.539Z,1012.57
2019-03-06T07:42:40.566Z,1012.60
2019-03-06T07:43:40.595Z,1012.60
2019-03-06T07:44:40.621Z,1012.59
2019-03-06T07:45:40.652Z,1012.70
2019-03-06T07:46:40.680Z,1012.71
2019-03-06T07:47:40.706Z,1012.78
2019-03-06T07:48:40.737Z,1012.85
2019-03-06T07:49:44.983Z,1012.94
2019-03-06T07:50:40.790Z,1012.93
2019-03-06T07:51:40.818Z,1012.93
2019-03-06T07:52:40.849Z,1012.91
2019-03-06T07:53:40.876Z,1012.92
2019-03-06T07:54:40.903Z,1012.91
2019-03-06T07:55:40.932Z,1012.89
2019-03-06T07:56:40.958Z,1012.90
2019-03-06T07:57:40.985Z,1012.90
2019-03-06T07:58:41.012Z,1013.01
2019-03-06T07:59:41.040Z,1013.02
2019-03-06T08:00:41.065Z,1013.01
2019-03-06T08:01:41.094Z,1013.04
2019-03-06T08:02:41.123Z,1013.11
2019-03-06T08:03:41.148Z,1013.15
2019-03-06T08:04:41.176Z,1013.18
2019-03-06T08:05:41.203Z,1013.11
2019-03-06T08:06:41.232Z,1013.14
2019-03-06T08:07:41.260Z,1013.24
2019-03-06T08:08:41.287Z,1013.13
2019-03-06T08:09:41.316Z,1013.35
2019-03-06T08:10:41.339Z,1013.41
2019-03-06T08:11:41.368Z,1013.42
2019-03-06T08:12:41.396Z,1013.36
2019-03-06T08:13:41.430Z,1013.38
2019-03-06T08:14:41.455Z,1013.40
2019-03-06T08:15:41.482Z,1013.51
2019-03-06T08:16:41.511Z,1013.51
2019-03-06T08:17:41.541Z,1013.50
2019-03-06T08:18:41.569Z,1013.59
2019-03-06T08:19:41.601Z,1013.56
2019-03-06T08:20:41.628Z,1013.60
2019-03-06T08:21:41.657Z,1013.55
2019-03-06T08:22:41.688Z,1013.62
2019-03-06T08:23:41.719Z,1013.63
2019-03-06T08:24:41.747Z,1013.69
2019-03-06T08:25:41.777Z,1013.66
2019-03-06T08:26:41.805Z,1013.69
2019-03-06T08:27:41.841Z,1013.63
2019-03-06T08:28:41.870Z,1013.63
2019-03-06T08:29:41.898Z,1013.69
2019-03-06T08:30:43.346Z,1013.63
2019-03-06T08:31:41.962Z,1013.70
2019-03-06T08:32:41.991Z,1013.77
2019-03-06T08:33:42.022Z,1013.83
2019-03-06T08:34:42.051Z,1013.78
2019-03-06T08:35:42.109Z,1013.80
2019-03-06T08:36:42.112Z,1013.74
2019-03-06T08:37:42.143Z,1013.73
2019-03-06T08:38:42.174Z,1013.73
2019-03-06T08:39:42.206Z,1013.88
2019-03-06T08:40:42.238Z,1013.83
2019-03-06T08:41:42.265Z,1013.84
2019-03-06T08:42:42.296Z,1013.89
2019-03-06T08:43:42.326Z,1013.88
2019-03-06T08:44:42.355Z,1013.98
2019-03-06T08:45:42.386Z,1013.92
2019-03-06T08:46:42.419Z,1013.97
2019-03-06T08:47:42.446Z,1013.93
2019-03-06T08:48:42.479Z,1013.95
2019-03-06T08:49:42.508Z,1013.98
2019-03-06T08:50:42.537Z,1014.03
2019-03-06T08:51:42.566Z,1013.97
2019-03-06T08:52:42.601Z,1014.10
2019-03-06T08:53:42.628Z,1014.02
2019-03-06T08:54:42.661Z,1014.10
2019-03-06T08:55:42.688Z,1014.04
2019-03-06T08:56:42.722Z,1014.02
2019-03-06T08:57:42.750Z,1014.02
2019-03-06T08:58:42.784Z,1013.97
2019-03-06T08:59:42.814Z,1013.90
2019-03-06T09:00:42.847Z,1013.90
2019-03-06T09:01:42.883Z,1013.88
2019-03-06T09:02:42.913Z,1013.81
2019-03-06T09:03:42.937Z,1013.90
2019-03-06T09:04:42.970Z,1013.90
2019-03-06T09:05:44.835Z,1013.96
2019-03-06T09:06:43.034Z,1013.91
2019-03-06T09:07:43.064Z,1013.91
2019-03-06T09:08:43.093Z,1013.87
2019-03-06T09:09:43.132Z,1013.87
2019-03-06T09:10:43.154Z,1013.88
2019-03-06T09:11:43.183Z,1013.95
2019-03-06T09:12:43.214Z,1013.96
2019-03-06T09:13:43.245Z,1013.97
2019-03-06T09:14:43.278Z,1013.91
2019-03-06T09:15:43.304Z,1013.92
2019-03-06T09:16:43.334Z,1013.93
2019-03-06T09:17:43.368Z,1013.98
2019-03-06T09:18:43.394Z,1014.05
2019-03-06T09:19:43.424Z,1014.04
2019-03-06T09:20:43.456Z,1014.10
2019-03-06T09:21:43.488Z,1014.11
2019-03-06T09:22:43.522Z,1014.09
2019-03-06T09:23:43.544Z,1014.12
2019-03-06T09:24:43.580Z,1014.17
2019-03-06T09:25:43.603Z,1014.18
2019-03-06T09:26:43.635Z,1014.16
2019-03-06T09:27:43.661Z,1014.11
2019-03-06T09:28:43.692Z,1014.12
2019-03-06T09:29:43.722Z,1014.08
2019-03-06T09:30:43.751Z,1014.00
2019-03-06T09:31:43.784Z,1014.06
2019-03-06T09:32:43.810Z,1014.04
2019-03-06T09:33:43.836Z,1014.00
2019-03-06T09:34:43.865Z,1014.02
2019-03-06T09:35:43.898Z,1014.05
2019-03-06T09:36:43.922Z,1014.09
2019-03-06T09:37:43.953Z,1014.10
2019-03-06T09:38:43.981Z,1014.08
2019-03-06T09:39:44.008Z,1014.09
2019-03-06T09:40:44.039Z,1014.06
2019-03-06T09:41:44.066Z,1014.06
2019-03-06T09:42:44.097Z,1014.03
2019-03-06T09:43:44.137Z,1014.03
2019-03-06T09:44:44.149Z,1014.01
2019-03-06T09:45:44.181Z,1013.99
2019-03-06T09:46:44.206Z,1014.06
2019-03-06T09:47:44.233Z,1013.97
2019-03-06T09:48:44.262Z,1014.02
2019-03-06T09:49:44.291Z,1013.98
2019-03-06T09:50:44.322Z,1013.98
2019-03-06T09:51:44.344Z,1013.89
2019-03-06T09:52:44.373Z,1013.82
2019-03-06T09:53:44.400Z,1013.76
2019-03-06T09:54:44.428Z,1013.75
2019-03-06T09:55:44.454Z,1013.67
2019-03-06T09:56:44.482Z,1013.72
2019-03-06T09:57:44.512Z,1013.76
2019-03-06T09:58:44.539Z,1013.68
2019-03-06T09:59:44.564Z,1013.68
2019-03-06T10:00:44.595Z,1013.71
2019-03-06T10:01:44.622Z,1013.79
2019-03-06T10:02:44.645Z,1013.74
2019-03-06T10:03:44.676Z,1013.80
2019-03-06T10:04:44.752Z,1013.75
2019-03-06T10:05:44.727Z,1013.77
2019-03-06T10:06:44.752Z,1013.76
2019-03-06T10:07:44.783Z,1013.81
2019-03-06T10:08:44.808Z,1013.80
2019-03-06T10:09:44.836Z,1013.80
2019-03-06T10:10:47.717Z,1013.97
2019-03-06T10:11:44.889Z,1013.91
2019-03-06T10:12:47.714Z,1013.79
2019-03-06T10:13:44.945Z,1013.77
2019-03-06T10:14:44.972Z,1013.86
2019-03-06T10:15:45.000Z,1013.87
2019-03-06T10:16:48.777Z,1013.73
2019-03-06T10:17:45.054Z,1013.84
2019-03-06T10:18:45.080Z,1013.66
2019-03-06T10:19:45.113Z,1013.79
2019-03-06T10:20:45.138Z,1013.64
2019-03-06T10:21:45.168Z,1013.78
2019-03-06T10:22:45.195Z,1013.75
2019-03-06T10:23:45.226Z,1013.84
2019-03-06T10:24:45.255Z,1013.68
2019-03-06T10:25:45.284Z,1013.73
2019-03-06T10:26:45.315Z,1013.80
2019-03-06T10:27:45.338Z,1013.66
2019-03-06T10:28:45.368Z,1013.66
2019-03-06T10:29:45.397Z,1013.63
2019-03-06T10:30:45.429Z,1013.63
2019-03-06T10:31:45.459Z,1013.76
2019-03-06T10:32:45.486Z,1013.88
2019-03-06T10:33:45.511Z,1013.65
2019-03-06T10:34:45.545Z,1013.69
2019-03-06T10:35:45.572Z,1013.77
2019-03-06T10:36:45.604Z,1013.73
2019-03-06T10:37:45.627Z,1013.71
2019-03-06T10:38:45.658Z,1013.76
2019-03-06T10:39:45.685Z,1013.69
2019-03-06T10:40:45.719Z,1013.73
2019-03-06T10:41:45.748Z,1013.68
2019-03-06T10:42:45.775Z,1013.61
2019-03-06T10:44:45.835Z,1013.82
2019-03-06T10:45:45.866Z,1013.83
2019-03-06T10:46:45.898Z,1013.79
2019-03-06T10:47:45.924Z,1013.80
2019-03-06T10:48:45.954Z,1013.87
2019-03-06T10:49:45.991Z,1013.89
2019-03-06T10:50:46.014Z,1013.96
2019-03-06T10:51:46.045Z,1013.99
2019-03-06T10:52:46.078Z,1014.02
2019-03-06T10:53:46.110Z,1014.02
2019-03-06T10:54:46.141Z,1014.03
2019-03-06T10:55:46.172Z,1014.02
2019-03-06T10:56:46.201Z,1014.08
2019-03-06T10:57:46.234Z,1014.00
2019-03-06T10:58:46.264Z,1014.05
2019-03-06T10:59:46.298Z,1013.98
2019-03-06T11:00:46.331Z,1014.05
2019-03-06T11:01:46.362Z,1014.10
2019-03-06T11:02:46.391Z,1013.98
2019-03-06T11:03:46.425Z,1014.08
2019-03-06T11:04:46.455Z,1014.09
2019-03-06T11:05:46.486Z,1014.01
2019-03-06T11:06:46.516Z,1014.08
2019-03-06T11:07:46.548Z,1014.08
2019-03-06T11:08:46.581Z,1014.23
2019-03-06T11:09:46.611Z,1014.22
2019-03-06T11:10:46.642Z,1014.15
2019-03-06T11:11:46.672Z,1014.08
2019-03-06T11:12:46.707Z,1014.05
2019-03-06T11:13:46.739Z,1014.05
2019-03-06T11:14:46.769Z,1013.96
2019-03-06T11:15:55.141Z,1013.98
2019-03-06T11:16:46.828Z,1013.92
2019-03-06T11:17:46.871Z,1013.85
2019-03-06T11:18:46.892Z,1013.87
2019-03-06T11:19:46.922Z,1014.00
2019-03-06T11:20:46.951Z,1013.97
2019-03-06T11:21:46.984Z,1014.04
2019-03-06T11:22:47.014Z,1014.05
2019-03-06T11:23:47.047Z,1014.00
2019-03-06T11:24:47.069Z,1014.00
2019-03-06T11:25:47.102Z,1014.09
2019-03-06T11:26:47.132Z,1013.99
2019-03-06T11:27:47.159Z,1014.02
2019-03-06T11:28:47.191Z,1014.03
2019-03-06T11:29:47.221Z,1013.99
2019-03-06T11:30:47.248Z,1014.03
2019-03-06T11:31:47.278Z,1014.00
2019-03-06T11:32:54.322Z,1013.96
2019-03-06T11:33:47.334Z,1014.00
2019-03-06T11:34:47.361Z,1013.99
2019-03-06T11:35:47.392Z,1014.04
2019-03-06T11:36:47.419Z,1014.08
2019-03-06T11:37:47.448Z,1014.09
2019-03-06T11:38:47.477Z,1014.15
2019-03-06T11:39:47.510Z,1014.12
2019-03-06T11:40:47.539Z,1014.16
2019-03-06T11:41:47.567Z,1014.13
2019-03-06T11:42:47.594Z,1014.26
2019-03-06T11:43:47.630Z,1013.98
2019-03-06T11:44:47.655Z,1014.05
2019-03-06T11:45:47.690Z,1014.05
2019-03-06T11:46:47.716Z,1014.14
2019-03-06T11:47:47.745Z,1014.01
2019-03-06T11:48:47.776Z,1013.97
2019-03-06T11:49:47.808Z,1013.96
2019-03-06T11:50:47.837Z,1013.80
2019-03-06T11:51:47.870Z,1013.72
2019-03-06T11:52:47.900Z,1013.82
2019-03-06T11:53:47.936Z,1013.79
2019-03-06T11:54:48.198Z,1013.92
2019-03-06T11:55:47.991Z,1014.00
2019-03-06T11:56:48.021Z,1013.96
2019-03-06T11:57:48.049Z,1013.95
2019-03-06T11:58:48.079Z,1013.94
2019-03-06T11:59:48.112Z,1013.95
2019-03-06T12:00:48.139Z,1014.01
2019-03-06T12:01:48.543Z,1014.20
2019-03-06T12:02:48.200Z,1014.29
2019-03-06T12:03:48.231Z,1013.94
2019-03-06T12:04:48.257Z,1013.97
2019-03-06T12:05:48.287Z,1014.15
2019-03-06T12:06:48.317Z,1014.06